sensor_id;sensor_type;location;lat;lon;timestamp;pressure;altitude;pressure_sealevel;temperature;humidity
72959;BME280;60008;50.826;6.896;2023-02-01T00:01:37;101571.53;;;5.70;100.00
72959;BME280;60008;50.826;6.896;2023-02-01T00:04:22;101564.06;;;5.64;100.00
72959;BME280;60008;50.826;6.896;2023-02-01T00:07:07;101562.91;;;5.56;100.00
72959;BME280;60008;50.826;6.896;2023-02-01T00:09:52;101561.78;;;5.47;100.00
72959;BME280;60008;50.826;6.896;2023-02-01T00:12:37;101565.25;;;5.48;100.00
72959;BME280;60008;50.826;6.896;2023-02-01T00:15:25;101558.00;;;5.51;100.00
72959;BME280;60008;50.826;6.896;2023-02-01T00:18:10;101555.56;;;5.48;100.00
72959;BME280;60008;50.826;6.896;2023-02-01T00:20:55;101561.91;;;5.46;100.00
72959;BME280;60008;50.826;6.896;2023-02-01T00:23:39;101559.34;;;5.44;100.00
72959;BME280;60008;50.826;6.896;2023-02-01T00:26:37;101559.69;;;5.39;100.00
72959;BME280;60008;50.826;6.896;2023-02-01T00:29:22;101550.53;;;5.45;100.00
72959;BME280;60008;50.826;6.896;2023-02-01T00:32:07;101547.91;;;5.45;100.00
72959;BME280;60008;50.826;6.896;2023-02-01T00:34:52;101552.22;;;5.33;100.00
72959;BME280;60008;50.826;6.896;2023-02-01T00:37:37;101537.47;;;5.43;100.00
72959;BME280;60008;50.826;6.896;2023-02-01T00:40:22;101535.41;;;5.49;100.00
72959;BME280;60008;50.826;6.896;2023-02-01T00:43:07;101525.09;;;5.46;100.00
72959;BME280;60008;50.826;6.896;2023-02-01T00:45:52;101520.34;;;5.51;100.00
72959;BME280;60008;50.826;6.896;2023-02-01T00:48:37;101526.97;;;5.43;100.00
72959;BME280;60008;50.826;6.896;2023-02-01T00:51:26;101526.22;;;5.54;100.00
72959;BME280;60008;50.826;6.896;2023-02-01T00:54:11;101527.03;;;5.55;100.00
72959;BME280;60008;50.826;6.896;2023-02-01T00:56:56;101526.84;;;5.58;100.00
72959;BME280;60008;50.826;6.896;2023-02-01T00:59:41;101529.47;;;5.58;100.00
72959;BME280;60008;50.826;6.896;2023-02-01T01:02:26;101522.03;;;5.52;100.00
72959;BME280;60008;50.826;6.896;2023-02-01T01:05:12;101523.47;;;5.56;100.00
72959;BME280;60008;50.826;6.896;2023-02-01T01:07:57;101521.19;;;5.51;100.00
72959;BME280;60008;50.826;6.896;2023-02-01T01:10:42;101509.41;;;5.57;100.00
72959;BME280;60008;50.826;6.896;2023-02-01T01:13:28;101489.44;;;5.54;100.00
72959;BME280;60008;50.826;6.896;2023-02-01T01:16:13;101479.97;;;5.52;100.00
72959;BME280;60008;50.826;6.896;2023-02-01T01:18:59;101477.94;;;5.55;100.00
72959;BME280;60008;50.826;6.896;2023-02-01T01:21:44;101471.25;;;5.51;100.00
72959;BME280;60008;50.826;6.896;2023-02-01T01:24:29;101468.63;;;5.51;100.00
72959;BME280;60008;50.826;6.896;2023-02-01T01:27:13;101481.28;;;5.57;100.00
72959;BME280;60008;50.826;6.896;2023-02-01T01:29:58;101477.94;;;5.55;100.00
72959;BME280;60008;50.826;6.896;2023-02-01T01:32:43;101484.88;;;5.56;100.00
72959;BME280;60008;50.826;6.896;2023-02-01T01:35:32;101486.81;;;5.54;100.00
72959;BME280;60008;50.826;6.896;2023-02-01T01:38:18;101498.13;;;5.55;100.00
72959;BME280;60008;50.826;6.896;2023-02-01T01:41:03;101503.06;;;5.59;100.00
72959;BME280;60008;50.826;6.896;2023-02-01T01:43:56;101516.22;;;5.59;100.00
72959;BME280;60008;50.826;6.896;2023-02-01T01:46:42;101518.84;;;5.59;100.00
72959;BME280;60008;50.826;6.896;2023-02-01T01:49:27;101518.00;;;5.59;100.00
72959;BME280;60008;50.826;6.896;2023-02-01T01:52:12;101510.84;;;5.61;100.00
72959;BME280;60008;50.826;6.896;2023-02-01T01:54:58;101500.00;;;5.65;100.00
72959;BME280;60008;50.826;6.896;2023-02-01T01:57:48;101500.53;;;5.58;100.00
72959;BME280;60008;50.826;6.896;2023-02-01T02:00:34;101497.75;;;5.48;100.00
72959;BME280;60008;50.826;6.896;2023-02-01T02:03:35;101489.84;;;5.48;100.00
72959;BME280;60008;50.826;6.896;2023-02-01T02:06:47;101482.91;;;5.47;100.00
72959;BME280;60008;50.826;6.896;2023-02-01T02:09:34;101480.91;;;5.51;100.00
72959;BME280;60008;50.826;6.896;2023-02-01T02:12:18;101484.16;;;5.54;100.00
72959;BME280;60008;50.826;6.896;2023-02-01T02:15:04;101489.84;;;5.48;100.00
72959;BME280;60008;50.826;6.896;2023-02-01T02:18:22;101478.28;;;5.51;100.00
72959;BME280;60008;50.826;6.896;2023-02-01T02:21:37;101471.25;;;5.51;100.00
72959;BME280;60008;50.826;6.896;2023-02-01T02:24:49;101464.41;;;5.49;100.00
72959;BME280;60008;50.826;6.896;2023-02-01T02:30:43;101459.88;;;5.51;100.00
72959;BME280;60008;50.826;6.896;2023-02-01T02:34:45;101465.00;;;5.52;100.00
72959;BME280;60008;50.826;6.896;2023-02-01T02:37:11;101459.31;;;5.58;100.00
72959;BME280;60008;50.826;6.896;2023-02-01T02:40:04;101455.84;;;5.58;100.00
72959;BME280;60008;50.826;6.896;2023-02-01T02:46:18;101465.94;;;5.64;100.00
72959;BME280;60008;50.826;6.896;2023-02-01T02:52:17;101463.78;;;5.69;100.00
72959;BME280;60008;50.826;6.896;2023-02-01T02:55:25;101459.16;;;5.72;100.00
72959;BME280;60008;50.826;6.896;2023-02-01T02:58:12;101456.63;;;5.71;100.00
72959;BME280;60008;50.826;6.896;2023-02-01T03:01:17;101449.81;;;5.68;100.00
72959;BME280;60008;50.826;6.896;2023-02-01T03:04:21;101440.03;;;5.70;100.00
72959;BME280;60008;50.826;6.896;2023-02-01T03:07:45;101429.63;;;5.69;100.00
72959;BME280;60008;50.826;6.896;2023-02-01T03:10:28;101435.22;;;5.64;100.00
72959;BME280;60008;50.826;6.896;2023-02-01T03:13:45;101431.53;;;5.67;100.00
72959;BME280;60008;50.826;6.896;2023-02-01T03:16:33;101426.38;;;5.65;100.00
72959;BME280;60008;50.826;6.896;2023-02-01T03:19:23;101427.19;;;5.66;100.00
72959;BME280;60008;50.826;6.896;2023-02-01T03:22:17;101429.97;;;5.64;100.00
72959;BME280;60008;50.826;6.896;2023-02-01T03:25:17;101435.00;;;5.67;100.00
72959;BME280;60008;50.826;6.896;2023-02-01T03:28:07;101438.47;;;5.68;100.00
72959;BME280;60008;50.826;6.896;2023-02-01T03:30:53;101443.47;;;5.71;100.00
72959;BME280;60008;50.826;6.896;2023-02-01T03:33:38;101436.56;;;5.70;100.00
72959;BME280;60008;50.826;6.896;2023-02-01T03:36:31;101447.94;;;5.70;100.00
72959;BME280;60008;50.826;6.896;2023-02-01T03:39:31;101437.91;;;5.75;100.00
72959;BME280;60008;50.826;6.896;2023-02-01T03:42:21;101437.50;;;5.69;100.00
72959;BME280;60008;50.826;6.896;2023-02-01T03:45:14;101436.13;;;5.76;100.00
72959;BME280;60008;50.826;6.896;2023-02-01T03:48:03;101443.72;;;5.68;100.00
72959;BME280;60008;50.826;6.896;2023-02-01T03:50:52;101436.19;;;5.87;100.00
72959;BME280;60008;50.826;6.896;2023-02-01T03:53:40;101427.66;;;5.83;100.00
72959;BME280;60008;50.826;6.896;2023-02-01T03:56:28;101421.38;;;5.86;100.00
72959;BME280;60008;50.826;6.896;2023-02-01T03:59:14;101428.22;;;5.76;100.00
72959;BME280;60008;50.826;6.896;2023-02-01T04:01:59;101413.75;;;5.70;100.00
72959;BME280;60008;50.826;6.896;2023-02-01T04:04:45;101418.81;;;5.61;100.00
72959;BME280;60008;50.826;6.896;2023-02-01T04:07:30;101417.03;;;5.61;100.00
72959;BME280;60008;50.826;6.896;2023-02-01T04:10:15;101429.97;;;5.64;100.00
72959;BME280;60008;50.826;6.896;2023-02-01T04:13:04;101425.25;;;5.57;100.00
72959;BME280;60008;50.826;6.896;2023-02-01T04:15:49;101421.50;;;5.48;100.00
72959;BME280;60008;50.826;6.896;2023-02-01T04:18:36;101427.50;;;5.50;100.00
72959;BME280;60008;50.826;6.896;2023-02-01T04:21:21;101425.50;;;5.41;100.00
72959;BME280;60008;50.826;6.896;2023-02-01T04:24:06;101430.13;;;5.50;100.00
72959;BME280;60008;50.826;6.896;2023-02-01T04:26:52;101429.91;;;5.53;100.00
72959;BME280;60008;50.826;6.896;2023-02-01T04:29:37;101425.72;;;5.51;100.00
72959;BME280;60008;50.826;6.896;2023-02-01T04:32:23;101418.88;;;5.48;100.00
72959;BME280;60008;50.826;6.896;2023-02-01T04:35:08;101424.22;;;5.47;100.00
72959;BME280;60008;50.826;6.896;2023-02-01T04:37:53;101417.63;;;5.41;100.00
72959;BME280;60008;50.826;6.896;2023-02-01T04:40:38;101409.66;;;5.43;100.00
72959;BME280;60008;50.826;6.896;2023-02-01T04:43:23;101414.78;;;5.44;100.00
72959;BME280;60008;50.826;6.896;2023-02-01T04:46:09;101410.72;;;5.40;100.00
72959;BME280;60008;50.826;6.896;2023-02-01T04:48:54;101412.50;;;5.39;100.00
72959;BME280;60008;50.826;6.896;2023-02-01T04:51:39;101409.75;;;5.41;100.00
72959;BME280;60008;50.826;6.896;2023-02-01T04:54:25;101412.00;;;5.34;100.00
72959;BME280;60008;50.826;6.896;2023-02-01T04:57:10;101411.72;;;5.26;100.00
72959;BME280;60008;50.826;6.896;2023-02-01T04:59:55;101412.56;;;5.27;100.00
72959;BME280;60008;50.826;6.896;2023-02-01T05:02:40;101397.22;;;5.21;100.00
72959;BME280;60008;50.826;6.896;2023-02-01T05:05:26;101386.50;;;5.24;100.00
72959;BME280;60008;50.826;6.896;2023-02-01T05:08:11;101376.19;;;5.21;100.00
72959;BME280;60008;50.826;6.896;2023-02-01T05:10:56;101370.09;;;5.20;100.00
72959;BME280;60008;50.826;6.896;2023-02-01T05:13:41;101356.75;;;5.23;100.00
72959;BME280;60008;50.826;6.896;2023-02-01T05:16:33;101367.81;;;5.16;100.00
72959;BME280;60008;50.826;6.896;2023-02-01T05:19:18;101372.22;;;5.15;100.00
72959;BME280;60008;50.826;6.896;2023-02-01T05:22:03;101378.63;;;5.11;100.00
72959;BME280;60008;50.826;6.896;2023-02-01T05:24:48;101382.59;;;5.17;100.00
72959;BME280;60008;50.826;6.896;2023-02-01T05:27:33;101388.41;;;5.09;100.00
72959;BME280;60008;50.826;6.896;2023-02-01T05:30:18;101387.16;;;5.15;100.00
72959;BME280;60008;50.826;6.896;2023-02-01T05:33:03;101395.97;;;5.14;100.00
72959;BME280;60008;50.826;6.896;2023-02-01T05:35:48;101384.72;;;5.12;100.00
72959;BME280;60008;50.826;6.896;2023-02-01T05:38:35;101398.16;;;5.20;100.00
72959;BME280;60008;50.826;6.896;2023-02-01T05:41:20;101395.31;;;5.23;100.00
72959;BME280;60008;50.826;6.896;2023-02-01T05:44:05;101393.97;;;5.17;100.00
72959;BME280;60008;50.826;6.896;2023-02-01T05:46:52;101390.09;;;5.10;100.00
72959;BME280;60008;50.826;6.896;2023-02-01T05:49:36;101396.63;;;5.05;100.00
72959;BME280;60008;50.826;6.896;2023-02-01T05:52:21;101401.78;;;5.06;100.00
72959;BME280;60008;50.826;6.896;2023-02-01T05:55:07;101403.53;;;5.06;100.00
72959;BME280;60008;50.826;6.896;2023-02-01T05:57:52;101394.22;;;5.02;100.00
72959;BME280;60008;50.826;6.896;2023-02-01T06:00:36;101390.97;;;4.98;100.00
72959;BME280;60008;50.826;6.896;2023-02-01T06:03:21;101375.94;;;5.00;100.00
72959;BME280;60008;50.826;6.896;2023-02-01T06:06:06;101383.59;;;5.03;100.00
72959;BME280;60008;50.826;6.896;2023-02-01T06:08:51;101381.09;;;5.02;100.00
72959;BME280;60008;50.826;6.896;2023-02-01T06:11:36;101379.31;;;5.02;100.00
72959;BME280;60008;50.826;6.896;2023-02-01T06:14:21;101390.81;;;5.12;100.00
72959;BME280;60008;50.826;6.896;2023-02-01T06:17:06;101384.00;;;5.10;100.00
72959;BME280;60008;50.826;6.896;2023-02-01T06:19:52;101387.69;;;5.07;100.00
72959;BME280;60008;50.826;6.896;2023-02-01T06:22:37;101380.97;;;5.03;100.00
72959;BME280;60008;50.826;6.896;2023-02-01T06:25:22;101373.09;;;5.03;100.00
72959;BME280;60008;50.826;6.896;2023-02-01T06:28:07;101384.78;;;4.99;100.00
72959;BME280;60008;50.826;6.896;2023-02-01T06:30:52;101388.78;;;4.92;100.00
72959;BME280;60008;50.826;6.896;2023-02-01T06:33:37;101399.59;;;4.88;100.00
72959;BME280;60008;50.826;6.896;2023-02-01T06:36:23;101393.50;;;5.00;100.00
72959;BME280;60008;50.826;6.896;2023-02-01T06:39:08;101403.38;;;4.96;100.00
72959;BME280;60008;50.826;6.896;2023-02-01T06:41:53;101402.44;;;4.97;100.00
72959;BME280;60008;50.826;6.896;2023-02-01T06:44:38;101404.81;;;5.00;100.00
72959;BME280;60008;50.826;6.896;2023-02-01T06:47:23;101414.81;;;4.95;100.00
72959;BME280;60008;50.826;6.896;2023-02-01T06:50:09;101423.75;;;5.05;100.00
72959;BME280;60008;50.826;6.896;2023-02-01T06:52:55;101418.81;;;5.01;100.00
72959;BME280;60008;50.826;6.896;2023-02-01T06:55:40;101415.63;;;5.08;100.00
72959;BME280;60008;50.826;6.896;2023-02-01T06:58:30;101420.88;;;5.08;100.00
72959;BME280;60008;50.826;6.896;2023-02-01T07:01:15;101426.97;;;5.09;100.00
72959;BME280;60008;50.826;6.896;2023-02-01T07:04:00;101433.72;;;5.00;100.00
72959;BME280;60008;50.826;6.896;2023-02-01T07:06:45;101433.50;;;5.03;100.00
72959;BME280;60008;50.826;6.896;2023-02-01T07:09:30;101433.84;;;4.99;100.00
72959;BME280;60008;50.826;6.896;2023-02-01T07:12:15;101432.34;;;4.95;100.00
72959;BME280;60008;50.826;6.896;2023-02-01T07:15:01;101445.50;;;4.95;100.00
72959;BME280;60008;50.826;6.896;2023-02-01T07:17:47;101437.22;;;4.88;100.00
72959;BME280;60008;50.826;6.896;2023-02-01T07:20:33;101439.34;;;4.83;100.00
72959;BME280;60008;50.826;6.896;2023-02-01T07:23:18;101448.56;;;4.89;100.00
72959;BME280;60008;50.826;6.896;2023-02-01T07:26:05;101448.97;;;4.95;100.00
72959;BME280;60008;50.826;6.896;2023-02-01T07:28:51;101457.34;;;5.00;100.00
72959;BME280;60008;50.826;6.896;2023-02-01T07:31:35;101464.94;;;5.05;100.00
72959;BME280;60008;50.826;6.896;2023-02-01T07:34:20;101461.47;;;5.04;100.00
72959;BME280;60008;50.826;6.896;2023-02-01T07:37:05;101463.16;;;5.05;100.00
72959;BME280;60008;50.826;6.896;2023-02-01T07:39:51;101472.41;;;5.11;100.00
72959;BME280;60008;50.826;6.896;2023-02-01T07:42:36;101470.16;;;5.17;100.00
72959;BME280;60008;50.826;6.896;2023-02-01T07:45:22;101463.75;;;5.21;100.00
72959;BME280;60008;50.826;6.896;2023-02-01T07:48:07;101479.72;;;5.18;100.00
72959;BME280;60008;50.826;6.896;2023-02-01T07:51:00;101463.25;;;5.16;100.00
72959;BME280;60008;50.826;6.896;2023-02-01T07:53:46;101465.75;;;5.18;100.00
72959;BME280;60008;50.826;6.896;2023-02-01T07:56:30;101462.06;;;5.20;100.00
72959;BME280;60008;50.826;6.896;2023-02-01T07:59:15;101451.56;;;5.20;100.00
72959;BME280;60008;50.826;6.896;2023-02-01T08:02:00;101459.44;;;5.20;100.00
72959;BME280;60008;50.826;6.896;2023-02-01T08:04:45;101454.19;;;5.20;100.00
72959;BME280;60008;50.826;6.896;2023-02-01T08:07:30;101458.28;;;5.24;100.00
72959;BME280;60008;50.826;6.896;2023-02-01T08:10:18;101465.09;;;5.27;100.00
72959;BME280;60008;50.826;6.896;2023-02-01T08:13:03;101466.97;;;5.25;100.00
72959;BME280;60008;50.826;6.896;2023-02-01T08:15:48;101474.44;;;5.31;100.00
72959;BME280;60008;50.826;6.896;2023-02-01T08:18:34;101480.41;;;5.33;100.00
72959;BME280;60008;50.826;6.896;2023-02-01T08:21:22;101478.75;;;5.32;100.00
72959;BME280;60008;50.826;6.896;2023-02-01T08:24:08;101483.38;;;5.28;100.00
72959;BME280;60008;50.826;6.896;2023-02-01T08:26:54;101497.16;;;5.32;100.00
72959;BME280;60008;50.826;6.896;2023-02-01T08:29:39;101488.00;;;5.37;100.00
72959;BME280;60008;50.826;6.896;2023-02-01T08:32:26;101486.22;;;5.38;100.00
72959;BME280;60008;50.826;6.896;2023-02-01T08:35:11;101483.97;;;5.45;100.00
72959;BME280;60008;50.826;6.896;2023-02-01T08:37:56;101484.25;;;5.53;100.00
72959;BME280;60008;50.826;6.896;2023-02-01T08:40:41;101490.16;;;5.56;100.00
72959;BME280;60008;50.826;6.896;2023-02-01T08:43:26;101488.25;;;5.58;100.00
72959;BME280;60008;50.826;6.896;2023-02-01T08:46:11;101495.91;;;5.61;100.00
72959;BME280;60008;50.826;6.896;2023-02-01T08:48:56;101503.47;;;5.66;100.00
72959;BME280;60008;50.826;6.896;2023-02-01T08:51:41;101501.47;;;5.69;100.00
72959;BME280;60008;50.826;6.896;2023-02-01T08:54:26;101513.31;;;5.75;100.00
72959;BME280;60008;50.826;6.896;2023-02-01T08:57:11;101506.88;;;5.79;100.00
72959;BME280;60008;50.826;6.896;2023-02-01T08:59:56;101517.41;;;5.91;100.00
72959;BME280;60008;50.826;6.896;2023-02-01T09:02:42;101515.91;;;6.00;100.00
72959;BME280;60008;50.826;6.896;2023-02-01T09:05:27;101516.75;;;6.12;100.00
72959;BME280;60008;50.826;6.896;2023-02-01T09:08:32;101509.94;;;6.09;100.00
72959;BME280;60008;50.826;6.896;2023-02-01T09:11:18;101508.50;;;6.05;100.00
72959;BME280;60008;50.826;6.896;2023-02-01T09:14:04;101505.34;;;6.24;100.00
72959;BME280;60008;50.826;6.896;2023-02-01T09:16:49;101499.84;;;6.27;100.00
72959;BME280;60008;50.826;6.896;2023-02-01T09:19:34;101514.81;;;6.26;100.00
72959;BME280;60008;50.826;6.896;2023-02-01T09:22:19;101504.31;;;6.37;100.00
72959;BME280;60008;50.826;6.896;2023-02-01T09:25:05;101512.56;;;6.33;100.00
72959;BME280;60008;50.826;6.896;2023-02-01T09:27:50;101501.50;;;6.17;100.00
72959;BME280;60008;50.826;6.896;2023-02-01T09:30:36;101502.00;;;6.22;100.00
72959;BME280;60008;50.826;6.896;2023-02-01T09:33:21;101510.47;;;6.14;100.00
72959;BME280;60008;50.826;6.896;2023-02-01T09:36:08;101511.78;;;6.20;100.00
72959;BME280;60008;50.826;6.896;2023-02-01T09:38:53;101498.53;;;6.21;100.00
72959;BME280;60008;50.826;6.896;2023-02-01T09:47:34;101494.59;;;6.27;100.00
72959;BME280;60008;50.826;6.896;2023-02-01T09:50:23;101504.31;;;6.37;100.00
72959;BME280;60008;50.826;6.896;2023-02-01T09:53:20;101494.75;;;6.47;100.00
72959;BME280;60008;50.826;6.896;2023-02-01T09:56:13;101492.06;;;6.60;100.00
72959;BME280;60008;50.826;6.896;2023-02-01T09:59:06;101487.19;;;7.22;100.00
72959;BME280;60008;50.826;6.896;2023-02-01T10:01:56;101469.44;;;6.80;100.00
72959;BME280;60008;50.826;6.896;2023-02-01T10:04:41;101478.16;;;6.69;100.00
72959;BME280;60008;50.826;6.896;2023-02-01T10:07:38;101480.94;;;6.68;100.00
72959;BME280;60008;50.826;6.896;2023-02-01T10:10:35;101472.81;;;6.82;100.00
72959;BME280;60008;50.826;6.896;2023-02-01T10:13:52;101477.59;;;6.66;100.00
72959;BME280;60008;50.826;6.896;2023-02-01T10:16:58;101473.53;;;6.95;100.00
72959;BME280;60008;50.826;6.896;2023-02-01T10:22:51;101464.13;;;7.57;100.00
72959;BME280;60008;50.826;6.896;2023-02-01T10:26:46;101467.19;;;8.05;100.00
72959;BME280;60008;50.826;6.896;2023-02-01T10:29:18;101458.50;;;7.51;100.00
72959;BME280;60008;50.826;6.896;2023-02-01T10:32:38;101458.97;;;7.45;100.00
72959;BME280;60008;50.826;6.896;2023-02-01T10:35:24;101462.69;;;7.53;100.00
72959;BME280;60008;50.826;6.896;2023-02-01T10:38:26;101455.25;;;7.58;100.00
72959;BME280;60008;50.826;6.896;2023-02-01T10:41:15;101463.28;;;7.57;100.00
72959;BME280;60008;50.826;6.896;2023-02-01T10:44:03;101454.50;;;7.67;100.00
72959;BME280;60008;50.826;6.896;2023-02-01T10:46:50;101461.75;;;8.18;100.00
72959;BME280;60008;50.826;6.896;2023-02-01T10:49:43;101444.81;;;8.62;100.00
72959;BME280;60008;50.826;6.896;2023-02-01T10:52:36;101453.44;;;8.84;100.00
72959;BME280;60008;50.826;6.896;2023-02-01T10:58:17;101440.00;;;8.46;100.00
72959;BME280;60008;50.826;6.896;2023-02-01T11:01:06;101439.22;;;8.34;100.00
72959;BME280;60008;50.826;6.896;2023-02-01T11:03:59;101445.03;;;7.65;100.00
72959;BME280;60008;50.826;6.896;2023-02-01T11:06:47;101441.69;;;7.95;100.00
72959;BME280;60008;50.826;6.896;2023-02-01T11:09:39;101435.66;;;8.04;100.00
72959;BME280;60008;50.826;6.896;2023-02-01T11:12:30;101444.47;;;7.93;100.00
72959;BME280;60008;50.826;6.896;2023-02-01T11:15:21;101442.03;;;8.33;100.00
72959;BME280;60008;50.826;6.896;2023-02-01T11:18:16;101441.91;;;7.71;100.00
72959;BME280;60008;50.826;6.896;2023-02-01T11:21:03;101439.06;;;7.63;100.00
72959;BME280;60008;50.826;6.896;2023-02-01T11:23:48;101446.34;;;7.70;100.00
72959;BME280;60008;50.826;6.896;2023-02-01T11:26:39;101435.44;;;7.64;100.00
72959;BME280;60008;50.826;6.896;2023-02-01T11:29:29;101420.09;;;8.01;100.00
72959;BME280;60008;50.826;6.896;2023-02-01T11:32:20;101423.06;;;8.49;100.00
72959;BME280;60008;50.826;6.896;2023-02-01T11:35:07;101425.94;;;8.25;100.00
72959;BME280;60008;50.826;6.896;2023-02-01T11:37:58;101408.81;;;8.19;100.00
72959;BME280;60008;50.826;6.896;2023-02-01T11:40:43;101418.84;;;8.05;100.00
72959;BME280;60008;50.826;6.896;2023-02-01T11:43:28;101416.31;;;8.35;100.00
72959;BME280;60008;50.826;6.896;2023-02-01T11:46:19;101422.03;;;8.19;100.00
72959;BME280;60008;50.826;6.896;2023-02-01T11:49:25;101417.75;;;8.07;100.00
72959;BME280;60008;50.826;6.896;2023-02-01T11:55:38;101420.47;;;7.64;100.00
72959;BME280;60008;50.826;6.896;2023-02-01T11:58:40;101409.19;;;7.62;100.00
72959;BME280;60008;50.826;6.896;2023-02-01T12:04:55;101405.66;;;7.41;100.00
72959;BME280;60008;50.826;6.896;2023-02-01T12:07:55;101397.31;;;7.36;100.00
72959;BME280;60008;50.826;6.896;2023-02-01T12:11:06;101389.41;;;7.25;100.00
72959;BME280;60008;50.826;6.896;2023-02-01T12:23:49;101379.94;;;7.65;100.00
72959;BME280;60008;50.826;6.896;2023-02-01T12:29:59;101367.34;;;7.69;100.00
72959;BME280;60008;50.826;6.896;2023-02-01T12:33:10;101367.78;;;7.74;100.00
72959;BME280;60008;50.826;6.896;2023-02-01T12:36:12;101358.59;;;7.68;100.00
72959;BME280;60008;50.826;6.896;2023-02-01T12:39:26;101358.78;;;7.76;100.00
72959;BME280;60008;50.826;6.896;2023-02-01T12:42:20;101365.19;;;7.63;100.00
72959;BME280;60008;50.826;6.896;2023-02-01T12:45:15;101362.97;;;7.79;100.00
72959;BME280;60008;50.826;6.896;2023-02-01T12:48:24;101370.69;;;7.92;100.00
72959;BME280;60008;50.826;6.896;2023-02-01T12:51:25;101359.19;;;7.93;100.00
72959;BME280;60008;50.826;6.896;2023-02-01T12:54:20;101356.47;;;8.04;100.00
72959;BME280;60008;50.826;6.896;2023-02-01T12:57:23;101356.91;;;7.88;100.00
72959;BME280;60008;50.826;6.896;2023-02-01T13:00:43;101359.19;;;7.93;100.00
72959;BME280;60008;50.826;6.896;2023-02-01T13:06:33;101360.88;;;7.62;100.00
72959;BME280;60008;50.826;6.896;2023-02-01T13:09:34;101348.97;;;7.47;100.00
72959;BME280;60008;50.826;6.896;2023-02-01T13:12:28;101351.00;;;7.43;100.00
72959;BME280;60008;50.826;6.896;2023-02-01T13:15:24;101353.88;;;7.40;100.00
72959;BME280;60008;50.826;6.896;2023-02-01T13:18:17;101340.50;;;7.32;100.00
72959;BME280;60008;50.826;6.896;2023-02-01T13:21:06;101336.31;;;7.30;100.00
72959;BME280;60008;50.826;6.896;2023-02-01T13:23:53;101342.91;;;7.24;100.00
72959;BME280;60008;50.826;6.896;2023-02-01T13:26:38;101350.69;;;7.26;100.00
72959;BME280;60008;50.826;6.896;2023-02-01T13:29:24;101342.06;;;7.24;100.00
72959;BME280;60008;50.826;6.896;2023-02-01T13:32:16;101336.78;;;7.24;100.00
72959;BME280;60008;50.826;6.896;2023-02-01T13:35:53;101323.16;;;7.18;100.00
72959;BME280;60008;50.826;6.896;2023-02-01T13:42:02;101323.31;;;7.06;100.00
72959;BME280;60008;50.826;6.896;2023-02-01T13:44:51;101326.53;;;7.09;100.00
72959;BME280;60008;50.826;6.896;2023-02-01T13:47:43;101328.81;;;7.14;100.00
72959;BME280;60008;50.826;6.896;2023-02-01T13:50:35;101320.91;;;7.14;100.00
72959;BME280;60008;50.826;6.896;2023-02-01T13:53:29;101309.88;;;7.20;100.00
72959;BME280;60008;50.826;6.896;2023-02-01T13:56:18;101310.44;;;7.24;100.00
72959;BME280;60008;50.826;6.896;2023-02-01T13:59:46;101314.06;;;7.23;100.00
72959;BME280;60008;50.826;6.896;2023-02-01T14:08:23;101311.03;;;7.27;100.00
72959;BME280;60008;50.826;6.896;2023-02-01T14:11:32;101311.63;;;7.31;100.00
72959;BME280;60008;50.826;6.896;2023-02-01T14:19:47;101305.50;;;7.30;100.00
72959;BME280;60008;50.826;6.896;2023-02-01T14:22:33;101318.31;;;7.35;100.00
72959;BME280;60008;50.826;6.896;2023-02-01T14:25:19;101303.56;;;7.32;100.00
72959;BME280;60008;50.826;6.896;2023-02-01T14:28:31;101311.50;;;7.32;100.00
72959;BME280;60008;50.826;6.896;2023-02-01T14:40:05;101320.50;;;7.50;100.00
72959;BME280;60008;50.826;6.896;2023-02-01T14:43:00;101324.13;;;7.49;100.00
72959;BME280;60008;50.826;6.896;2023-02-01T14:45:49;101326.63;;;7.51;100.00
72959;BME280;60008;50.826;6.896;2023-02-01T14:51:21;101324.97;;;7.50;100.00
72959;BME280;60008;50.826;6.896;2023-02-01T14:54:11;101332.03;;;7.49;100.00
72959;BME280;60008;50.826;6.896;2023-02-01T14:56:58;101325.78;;;7.50;100.00
72959;BME280;60008;50.826;6.896;2023-02-01T14:59:45;101319.31;;;7.54;100.00
72959;BME280;60008;50.826;6.896;2023-02-01T15:02:33;101326.97;;;7.57;100.00
72959;BME280;60008;50.826;6.896;2023-02-01T15:05:31;101321.00;;;7.55;100.00
72959;BME280;60008;50.826;6.896;2023-02-01T15:08:21;101334.19;;;7.55;100.00
72959;BME280;60008;50.826;6.896;2023-02-01T15:11:15;101326.28;;;7.55;100.00
72959;BME280;60008;50.826;6.896;2023-02-01T15:14:00;101332.84;;;7.61;100.00
72959;BME280;60008;50.826;6.896;2023-02-01T15:16:46;101322.75;;;7.66;100.00
72959;BME280;60008;50.826;6.896;2023-02-01T15:19:38;101321.44;;;7.60;100.00
72959;BME280;60008;50.826;6.896;2023-02-01T15:22:24;101324.84;;;7.72;100.00
72959;BME280;60008;50.826;6.896;2023-02-01T15:25:21;101330.00;;;7.73;100.00
72959;BME280;60008;50.826;6.896;2023-02-01T15:28:13;101330.25;;;7.70;100.00
72959;BME280;60008;50.826;6.896;2023-02-01T15:31:04;101335.78;;;7.67;100.00
72959;BME280;60008;50.826;6.896;2023-02-01T15:33:56;101340.41;;;7.75;100.00
72959;BME280;60008;50.826;6.896;2023-02-01T15:36:43;101335.03;;;7.76;100.00
72959;BME280;60008;50.826;6.896;2023-02-01T15:42:55;101335.69;;;7.69;100.00
72959;BME280;60008;50.826;6.896;2023-02-01T15:45:40;101337.34;;;7.70;100.00
72959;BME280;60008;50.826;6.896;2023-02-01T15:48:26;101345.13;;;7.71;100.00
72959;BME280;60008;50.826;6.896;2023-02-01T15:51:24;101356.91;;;7.67;100.00
72959;BME280;60008;50.826;6.896;2023-02-01T15:54:19;101373.78;;;7.44;100.00
72959;BME280;60008;50.826;6.896;2023-02-01T15:57:05;101365.91;;;7.33;100.00
72959;BME280;60008;50.826;6.896;2023-02-01T15:59:52;101366.19;;;7.19;100.00
72959;BME280;60008;50.826;6.896;2023-02-01T16:03:00;101378.44;;;7.09;100.00